Hornepayne, Canada
Current Conditions -  °F | °C
As of 4:00 PM on Wednesday 26 Nov 2014 (Local Time) from CYSP Reporting Station
Light Snow Light Snow  
Wind Chill: -9°   Ceiling: 900
Heat Index:   Visibility: 0.75mi
Dew Point:   Wind: 12mph
Humidity: 85%   Direction: 40°NE
Pressure: 30.18"   Gusts: 18mph
Location:  49.22°N, 84.78°W
Report Text: CYSP 262100Z 04010G16KT 3/4SM -SN OVC009 M14/M16 A3018 RMK SN7SC1 /S03/ SLP250
Loading
Personal Weather Stations






























Interactive Weather Map New forecast layout! Learn more

10-Day Weather Forecast

Advertisements
Track Severe Weather on mobile